الصفحة الرئيسية
METAR-TAF:

METAR-TAF

مطار :

كناريا الكبرى, إسبانيا

مطار غران كناريا

دائرة عرض: 27-56N, خط طول: 015-23W, ارتفاع: 23 متر

مراقبة الطقس الحالي

تاريخ ووقت الإصدار 12 دقيقة قبل الساعة 03:30UTC
ريح 17 عقدة من الشمال
درجة الحرارة 18°درجة مئوية
الرطوبة 64%
ضغط 1022 hPa
الرؤية 10 كم أو أكثر
غيوم قليلة على ارتفاع 3000 قدم
غيوم مفككة على ارتفاع 5000 قدم

METAR: GCLP 190330Z 36017KT 9999 FEW030 BKN050 18/11 Q1022 NOSIG

زمن: 03:42 (03:42 UTC)

توقعات

تاريخ ووقت الإصدار 1ساعة و 42 دقيقة قبل الساعة 02:00UTC
التوقعات صالحة من19 الساعة 03 UTC إلى 20 الساعة 03 UTC
ريح 15 عقدة من الشمال
الرؤية 10 كم أو أكثر
غيوم متفرقة على ارتفاع 3000 قدم
نظرية الاحتمالات 40% :
مؤقت
من 19 الساعة 03 UTC إلى 20 الساعة 03 UTC
ريح 15 عقدة من الشمال تتزايد حتى 25 عقدة

TAF: GCLP 190200Z 1903/2003 01015KT 9999 SCT030 TX22/1914Z TN16/1906Z PROB40 TEMPO 1903/2003 01015G25KT

أرصاد الطقس والتوقعات من أكثر من 4000 مطار (تقارير الطقس للمطار METAR والتنبؤ بالطقس بالمطارTAF).

المحطات المتاحة هي النقط الصفراء والحمراء على الخريطة.

حرك المؤشر فوق النقطة لمعرفة اسم المحطة.

ثم انقر لمعرفة أرصاد وتوقعات الطقس.

لتغيير الخارطة: اضغط على الأزرار الخضراء مع رمز الصليب الأسود للتكبير. على الزر الأخضر مع شرطة للتصغير، أو على الأسهم الخضراء للخرائط المجاورة.


METAR-TAF: